sensor_id;sensor_type;location;lat;lon;timestamp;P1;durP1;ratioP1;P2;durP2;ratioP2
11279;SDS011;5696;50.928;6.960;2022-09-21T05:03:04;9.35;;;8.30;;
11279;SDS011;5696;50.928;6.960;2022-09-21T05:05:30;10.38;;;7.82;;
11279;SDS011;5696;50.928;6.960;2022-09-21T05:07:56;9.18;;;8.27;;
11279;SDS011;5696;50.928;6.960;2022-09-21T05:10:22;8.50;;;7.75;;
11279;SDS011;5696;50.928;6.960;2022-09-21T05:12:48;8.40;;;7.57;;
11279;SDS011;5696;50.928;6.960;2022-09-21T05:15:15;10.63;;;8.00;;
11279;SDS011;5696;50.928;6.960;2022-09-21T05:17:43;9.75;;;8.35;;
11279;SDS011;5696;50.928;6.960;2022-09-21T05:20:10;10.00;;;8.00;;
11279;SDS011;5696;50.928;6.960;2022-09-21T05:22:36;8.02;;;7.22;;
11279;SDS011;5696;50.928;6.960;2022-09-21T05:25:03;8.68;;;7.85;;
11279;SDS011;5696;50.928;6.960;2022-09-21T05:27:31;8.77;;;7.97;;
11279;SDS011;5696;50.928;6.960;2022-09-21T05:29:56;8.63;;;7.20;;
11279;SDS011;5696;50.928;6.960;2022-09-21T05:40:10;9.88;;;8.93;;
11279;SDS011;5696;50.928;6.960;2022-09-21T05:42:37;16.30;;;14.18;;
11279;SDS011;5696;50.928;6.960;2022-09-21T05:45:03;8.88;;;7.97;;
11279;SDS011;5696;50.928;6.960;2022-09-21T05:47:44;9.98;;;8.80;;
11279;SDS011;5696;50.928;6.960;2022-09-21T05:55:59;11.32;;;8.45;;
11279;SDS011;5696;50.928;6.960;2022-09-21T06:03:56;19.13;;;15.35;;
11279;SDS011;5696;50.928;6.960;2022-09-21T06:06:23;12.23;;;9.75;;
11279;SDS011;5696;50.928;6.960;2022-09-21T06:08:50;10.65;;;8.68;;
11279;SDS011;5696;50.928;6.960;2022-09-21T06:11:16;12.43;;;8.63;;
11279;SDS011;5696;50.928;6.960;2022-09-21T06:13:42;8.65;;;7.75;;
11279;SDS011;5696;50.928;6.960;2022-09-21T06:16:08;9.10;;;7.25;;
11279;SDS011;5696;50.928;6.960;2022-09-21T06:18:37;8.50;;;7.25;;
11279;SDS011;5696;50.928;6.960;2022-09-21T06:21:05;8.70;;;7.18;;
11279;SDS011;5696;50.928;6.960;2022-09-21T06:23:31;8.05;;;7.25;;
11279;SDS011;5696;50.928;6.960;2022-09-21T06:25:57;11.50;;;7.30;;
11279;SDS011;5696;50.928;6.960;2022-09-21T06:28:27;8.98;;;7.20;;
11279;SDS011;5696;50.928;6.960;2022-09-21T06:30:54;8.38;;;7.50;;
11279;SDS011;5696;50.928;6.960;2022-09-21T06:33:21;6.85;;;6.25;;
11279;SDS011;5696;50.928;6.960;2022-09-21T06:35:50;10.82;;;7.05;;
11279;SDS011;5696;50.928;6.960;2022-09-21T06:38:20;7.97;;;6.60;;
11279;SDS011;5696;50.928;6.960;2022-09-21T06:40:47;11.95;;;7.13;;
11279;SDS011;5696;50.928;6.960;2022-09-21T06:43:13;11.23;;;7.00;;
11279;SDS011;5696;50.928;6.960;2022-09-21T06:45:38;14.90;;;7.30;;
11279;SDS011;5696;50.928;6.960;2022-09-21T06:48:04;12.07;;;8.13;;
11279;SDS011;5696;50.928;6.960;2022-09-21T06:50:30;23.60;;;21.10;;
11279;SDS011;5696;50.928;6.960;2022-09-21T06:52:58;34.53;;;26.38;;
11279;SDS011;5696;50.928;6.960;2022-09-21T06:55:24;42.45;;;35.03;;
11279;SDS011;5696;50.928;6.960;2022-09-21T06:57:50;45.58;;;39.50;;
11279;SDS011;5696;50.928;6.960;2022-09-21T07:00:16;14.43;;;11.48;;
11279;SDS011;5696;50.928;6.960;2022-09-21T07:02:45;40.70;;;33.90;;
11279;SDS011;5696;50.928;6.960;2022-09-21T07:05:10;14.80;;;10.23;;
11279;SDS011;5696;50.928;6.960;2022-09-21T07:07:36;13.70;;;10.25;;
11279;SDS011;5696;50.928;6.960;2022-09-21T07:10:02;39.20;;;28.17;;
11279;SDS011;5696;50.928;6.960;2022-09-21T07:12:32;120.90;;;89.60;;
11279;SDS011;5696;50.928;6.960;2022-09-21T07:14:58;22.33;;;15.68;;
11279;SDS011;5696;50.928;6.960;2022-09-21T07:17:25;25.60;;;18.85;;
11279;SDS011;5696;50.928;6.960;2022-09-21T07:19:59;74.95;;;54.60;;
11279;SDS011;5696;50.928;6.960;2022-09-21T07:22:28;93.45;;;71.28;;
11279;SDS011;5696;50.928;6.960;2022-09-21T07:24:55;160.43;;;119.30;;
11279;SDS011;5696;50.928;6.960;2022-09-21T07:27:22;58.33;;;40.75;;
11279;SDS011;5696;50.928;6.960;2022-09-21T07:29:49;21.15;;;14.18;;
11279;SDS011;5696;50.928;6.960;2022-09-21T07:32:14;12.00;;;10.70;;
11279;SDS011;5696;50.928;6.960;2022-09-21T07:34:40;85.55;;;61.63;;
11279;SDS011;5696;50.928;6.960;2022-09-21T07:37:06;55.65;;;39.53;;
11279;SDS011;5696;50.928;6.960;2022-09-21T07:39:33;29.45;;;21.90;;
11279;SDS011;5696;50.928;6.960;2022-09-21T07:41:59;137.95;;;86.30;;
11279;SDS011;5696;50.928;6.960;2022-09-21T07:44:25;67.72;;;46.33;;
11279;SDS011;5696;50.928;6.960;2022-09-21T07:46:51;27.23;;;20.38;;
11279;SDS011;5696;50.928;6.960;2022-09-21T07:49:17;20.23;;;17.92;;
11279;SDS011;5696;50.928;6.960;2022-09-21T07:51:43;18.77;;;16.88;;
11279;SDS011;5696;50.928;6.960;2022-09-21T07:54:09;30.52;;;27.40;;
11279;SDS011;5696;50.928;6.960;2022-09-21T07:56:38;17.65;;;15.88;;
11279;SDS011;5696;50.928;6.960;2022-09-21T07:59:04;30.40;;;27.27;;
11279;SDS011;5696;50.928;6.960;2022-09-21T08:01:30;31.08;;;28.00;;
11279;SDS011;5696;50.928;6.960;2022-09-21T08:03:58;33.65;;;30.27;;
11279;SDS011;5696;50.928;6.960;2022-09-21T08:06:25;18.33;;;16.45;;
11279;SDS011;5696;50.928;6.960;2022-09-21T08:08:53;19.35;;;17.35;;
11279;SDS011;5696;50.928;6.960;2022-09-21T08:11:19;12.13;;;10.95;;
11279;SDS011;5696;50.928;6.960;2022-09-21T08:13:46;12.35;;;10.98;;
11279;SDS011;5696;50.928;6.960;2022-09-21T08:16:13;15.55;;;13.90;;
11279;SDS011;5696;50.928;6.960;2022-09-21T08:18:39;13.35;;;11.25;;
11279;SDS011;5696;50.928;6.960;2022-09-21T08:21:06;11.82;;;10.77;;
11279;SDS011;5696;50.928;6.960;2022-09-21T08:23:33;14.38;;;12.88;;
11279;SDS011;5696;50.928;6.960;2022-09-21T08:26:04;15.35;;;13.73;;
11279;SDS011;5696;50.928;6.960;2022-09-21T08:28:31;13.43;;;12.23;;
11279;SDS011;5696;50.928;6.960;2022-09-21T08:31:04;14.23;;;12.82;;
11279;SDS011;5696;50.928;6.960;2022-09-21T08:33:32;13.38;;;12.18;;
11279;SDS011;5696;50.928;6.960;2022-09-21T08:35:59;14.75;;;13.55;;
11279;SDS011;5696;50.928;6.960;2022-09-21T08:38:26;14.77;;;13.27;;
11279;SDS011;5696;50.928;6.960;2022-09-21T08:40:58;14.80;;;13.30;;
11279;SDS011;5696;50.928;6.960;2022-09-21T08:46:07;14.25;;;13.02;;
11279;SDS011;5696;50.928;6.960;2022-09-21T08:48:39;14.30;;;13.00;;
11279;SDS011;5696;50.928;6.960;2022-09-21T08:51:11;15.00;;;13.50;;
11279;SDS011;5696;50.928;6.960;2022-09-21T08:53:41;14.43;;;12.40;;
11279;SDS011;5696;50.928;6.960;2022-09-21T08:56:12;13.75;;;12.45;;
11279;SDS011;5696;50.928;6.960;2022-09-21T08:58:40;14.88;;;13.45;;
11279;SDS011;5696;50.928;6.960;2022-09-21T09:04:18;15.23;;;13.73;;
11279;SDS011;5696;50.928;6.960;2022-09-21T09:06:53;13.95;;;12.65;;
11279;SDS011;5696;50.928;6.960;2022-09-21T09:15:11;14.57;;;13.07;;
11279;SDS011;5696;50.928;6.960;2022-09-21T09:20:43;17.67;;;14.05;;
11279;SDS011;5696;50.928;6.960;2022-09-21T09:25:49;15.20;;;13.57;;
11279;SDS011;5696;50.928;6.960;2022-09-21T09:28:31;14.25;;;12.85;;
11279;SDS011;5696;50.928;6.960;2022-09-21T09:31:11;14.40;;;12.98;;
11279;SDS011;5696;50.928;6.960;2022-09-21T09:36:27;14.52;;;13.05;;
11279;SDS011;5696;50.928;6.960;2022-09-21T09:39:03;55.20;;;49.17;;
11279;SDS011;5696;50.928;6.960;2022-09-21T09:47:41;16.20;;;14.48;;
11279;SDS011;5696;50.928;6.960;2022-09-21T09:52:49;27.67;;;24.00;;
11279;SDS011;5696;50.928;6.960;2022-09-21T09:55:22;20.42;;;18.10;;
11279;SDS011;5696;50.928;6.960;2022-09-21T09:57:50;11.75;;;10.00;;
11279;SDS011;5696;50.928;6.960;2022-09-21T10:00:19;12.38;;;11.13;;
11279;SDS011;5696;50.928;6.960;2022-09-21T10:07:45;25.73;;;19.73;;
11279;SDS011;5696;50.928;6.960;2022-09-21T10:12:49;14.45;;;11.43;;
11279;SDS011;5696;50.928;6.960;2022-09-21T10:15:18;14.30;;;8.95;;
11279;SDS011;5696;50.928;6.960;2022-09-21T10:17:55;7.80;;;6.13;;
11279;SDS011;5696;50.928;6.960;2022-09-21T10:20:54;9.52;;;7.20;;
11279;SDS011;5696;50.928;6.960;2022-09-21T10:23:45;9.70;;;7.45;;
11279;SDS011;5696;50.928;6.960;2022-09-21T10:26:23;14.73;;;12.82;;
11279;SDS011;5696;50.928;6.960;2022-09-21T10:29:02;11.38;;;9.75;;
11279;SDS011;5696;50.928;6.960;2022-09-21T10:31:52;27.10;;;21.48;;
11279;SDS011;5696;50.928;6.960;2022-09-21T10:34:26;17.40;;;13.68;;
11279;SDS011;5696;50.928;6.960;2022-09-21T10:36:55;15.75;;;11.40;;
11279;SDS011;5696;50.928;6.960;2022-09-21T10:39:26;14.20;;;11.20;;
11279;SDS011;5696;50.928;6.960;2022-09-21T10:41:55;12.63;;;8.13;;
11279;SDS011;5696;50.928;6.960;2022-09-21T10:44:25;3.72;;;3.40;;
11279;SDS011;5696;50.928;6.960;2022-09-21T10:47:15;14.20;;;9.45;;
11279;SDS011;5696;50.928;6.960;2022-09-21T10:50:00;4.05;;;3.20;;
11279;SDS011;5696;50.928;6.960;2022-09-21T10:52:35;5.68;;;3.25;;
11279;SDS011;5696;50.928;6.960;2022-09-21T10:55:05;3.72;;;2.88;;
11279;SDS011;5696;50.928;6.960;2022-09-21T10:57:39;5.07;;;3.00;;
11279;SDS011;5696;50.928;6.960;2022-09-21T11:02:54;4.30;;;3.10;;
11279;SDS011;5696;50.928;6.960;2022-09-21T11:05:24;3.92;;;2.83;;
11279;SDS011;5696;50.928;6.960;2022-09-21T11:13:40;5.82;;;2.80;;
11279;SDS011;5696;50.928;6.960;2022-09-21T11:16:20;4.00;;;3.08;;
11279;SDS011;5696;50.928;6.960;2022-09-21T11:24:26;4.05;;;2.88;;
11279;SDS011;5696;50.928;6.960;2022-09-21T11:27:01;3.90;;;2.60;;
11279;SDS011;5696;50.928;6.960;2022-09-21T11:51:44;3.65;;;2.40;;
11279;SDS011;5696;50.928;6.960;2022-09-21T11:54:34;2.95;;;2.30;;
11279;SDS011;5696;50.928;6.960;2022-09-21T11:57:38;3.95;;;2.22;;
11279;SDS011;5696;50.928;6.960;2022-09-21T12:00:24;4.13;;;2.08;;
11279;SDS011;5696;50.928;6.960;2022-09-21T12:19:29;3.33;;;2.17;;
11279;SDS011;5696;50.928;6.960;2022-09-21T12:22:53;2.92;;;2.20;;
11279;SDS011;5696;50.928;6.960;2022-09-21T12:25:09;1.90;;;1.60;;
11279;SDS011;5696;50.928;6.960;2022-09-21T12:27:53;2.20;;;2.00;;
11279;SDS011;5696;50.928;6.960;2022-09-21T12:30:39;4.50;;;1.60;;
11279;SDS011;5696;50.928;6.960;2022-09-21T12:33:22;5.45;;;2.08;;
11279;SDS011;5696;50.928;6.960;2022-09-21T12:39:08;4.03;;;2.20;;
11279;SDS011;5696;50.928;6.960;2022-09-21T12:49:47;14.30;;;11.13;;
11279;SDS011;5696;50.928;6.960;2022-09-21T12:52:20;5.57;;;3.17;;
11279;SDS011;5696;50.928;6.960;2022-09-21T12:54:52;12.70;;;8.00;;
11279;SDS011;5696;50.928;6.960;2022-09-21T12:57:28;1.98;;;1.42;;
11279;SDS011;5696;50.928;6.960;2022-09-21T13:00:10;3.35;;;1.40;;
11279;SDS011;5696;50.928;6.960;2022-09-21T13:13:22;2.90;;;1.52;;
11279;SDS011;5696;50.928;6.960;2022-09-21T13:15:59;3.88;;;1.10;;
11279;SDS011;5696;50.928;6.960;2022-09-21T13:20:53;2.55;;;1.55;;
11279;SDS011;5696;50.928;6.960;2022-09-21T13:23:21;1.75;;;1.08;;
11279;SDS011;5696;50.928;6.960;2022-09-21T13:26:52;4.97;;;2.30;;
11279;SDS011;5696;50.928;6.960;2022-09-21T13:31:27;3.20;;;0.90;;
11279;SDS011;5696;50.928;6.960;2022-09-21T13:34:20;1.50;;;1.40;;
11279;SDS011;5696;50.928;6.960;2022-09-21T13:39:33;2.75;;;1.35;;
11279;SDS011;5696;50.928;6.960;2022-09-21T13:41:58;5.50;;;1.98;;
11279;SDS011;5696;50.928;6.960;2022-09-21T13:47:40;5.90;;;2.38;;
11279;SDS011;5696;50.928;6.960;2022-09-21T13:50:22;2.90;;;1.30;;
11279;SDS011;5696;50.928;6.960;2022-09-21T13:52:56;3.55;;;1.98;;
11279;SDS011;5696;50.928;6.960;2022-09-21T13:58:24;4.30;;;1.27;;
11279;SDS011;5696;50.928;6.960;2022-09-21T14:01:03;9.30;;;7.28;;
11279;SDS011;5696;50.928;6.960;2022-09-21T14:03:40;2.42;;;1.50;;
11279;SDS011;5696;50.928;6.960;2022-09-21T14:06:14;2.67;;;1.92;;
11279;SDS011;5696;50.928;6.960;2022-09-21T14:11:38;1.75;;;1.13;;
11279;SDS011;5696;50.928;6.960;2022-09-21T14:14:12;3.60;;;2.45;;
11279;SDS011;5696;50.928;6.960;2022-09-21T14:16:52;1.98;;;1.50;;
11279;SDS011;5696;50.928;6.960;2022-09-21T14:24:41;2.58;;;1.33;;
11279;SDS011;5696;50.928;6.960;2022-09-21T14:27:25;2.83;;;1.20;;
11279;SDS011;5696;50.928;6.960;2022-09-21T14:32:28;4.70;;;1.38;;
11279;SDS011;5696;50.928;6.960;2022-09-21T14:35:24;1.90;;;1.33;;
11279;SDS011;5696;50.928;6.960;2022-09-21T14:37:55;8.63;;;1.27;;
11279;SDS011;5696;50.928;6.960;2022-09-21T14:40:25;1.77;;;1.20;;
11279;SDS011;5696;50.928;6.960;2022-09-21T14:42:56;3.78;;;3.13;;
11279;SDS011;5696;50.928;6.960;2022-09-21T14:45:43;5.50;;;1.50;;
11279;SDS011;5696;50.928;6.960;2022-09-21T14:50:50;3.38;;;1.20;;
11279;SDS011;5696;50.928;6.960;2022-09-21T14:53:27;3.17;;;1.33;;
11279;SDS011;5696;50.928;6.960;2022-09-21T14:58:46;2.65;;;1.20;;
11279;SDS011;5696;50.928;6.960;2022-09-21T15:12:58;1.10;;;1.00;;
11279;SDS011;5696;50.928;6.960;2022-09-21T15:15:51;2.00;;;1.20;;
11279;SDS011;5696;50.928;6.960;2022-09-21T15:18:41;2.58;;;1.20;;
11279;SDS011;5696;50.928;6.960;2022-09-21T15:21:24;3.15;;;1.63;;
11279;SDS011;5696;50.928;6.960;2022-09-21T15:23:51;3.72;;;1.50;;
11279;SDS011;5696;50.928;6.960;2022-09-21T15:26:19;3.22;;;1.75;;
11279;SDS011;5696;50.928;6.960;2022-09-21T15:28:58;2.10;;;1.38;;
11279;SDS011;5696;50.928;6.960;2022-09-21T15:31:30;1.65;;;1.48;;
11279;SDS011;5696;50.928;6.960;2022-09-21T15:33:58;2.95;;;1.33;;
11279;SDS011;5696;50.928;6.960;2022-09-21T15:36:27;72.38;;;52.17;;
11279;SDS011;5696;50.928;6.960;2022-09-21T15:38:55;1.65;;;1.20;;
11279;SDS011;5696;50.928;6.960;2022-09-21T15:44:02;3.08;;;1.50;;
11279;SDS011;5696;50.928;6.960;2022-09-21T15:46:35;2.35;;;1.30;;
11279;SDS011;5696;50.928;6.960;2022-09-21T15:49:01;2.85;;;1.42;;
11279;SDS011;5696;50.928;6.960;2022-09-21T15:51:32;2.58;;;1.40;;
11279;SDS011;5696;50.928;6.960;2022-09-21T15:54:08;3.45;;;1.30;;
11279;SDS011;5696;50.928;6.960;2022-09-21T15:57:04;19.95;;;13.30;;
11279;SDS011;5696;50.928;6.960;2022-09-21T15:59:47;3.65;;;2.13;;
11279;SDS011;5696;50.928;6.960;2022-09-21T16:02:16;3.80;;;1.42;;
11279;SDS011;5696;50.928;6.960;2022-09-21T16:04:46;1.60;;;1.33;;
11279;SDS011;5696;50.928;6.960;2022-09-21T16:07:25;3.65;;;1.48;;
11279;SDS011;5696;50.928;6.960;2022-09-21T16:09:57;2.05;;;1.50;;
11279;SDS011;5696;50.928;6.960;2022-09-21T16:14:51;1.70;;;1.60;;
11279;SDS011;5696;50.928;6.960;2022-09-21T16:22:23;2.30;;;1.92;;
11279;SDS011;5696;50.928;6.960;2022-09-21T16:30:43;2.10;;;1.25;;
11279;SDS011;5696;50.928;6.960;2022-09-21T16:35:58;2.55;;;1.50;;
11279;SDS011;5696;50.928;6.960;2022-09-21T16:38:25;2.40;;;1.13;;
11279;SDS011;5696;50.928;6.960;2022-09-21T16:40:51;3.78;;;1.10;;
11279;SDS011;5696;50.928;6.960;2022-09-21T16:43:18;3.03;;;1.45;;
11279;SDS011;5696;50.928;6.960;2022-09-21T16:45:45;2.33;;;1.35;;
11279;SDS011;5696;50.928;6.960;2022-09-21T16:48:11;3.70;;;1.60;;
11279;SDS011;5696;50.928;6.960;2022-09-21T16:50:37;2.25;;;1.67;;
11279;SDS011;5696;50.928;6.960;2022-09-21T16:53:03;2.47;;;1.50;;
11279;SDS011;5696;50.928;6.960;2022-09-21T16:55:29;3.15;;;1.58;;
11279;SDS011;5696;50.928;6.960;2022-09-21T16:57:55;2.83;;;1.80;;
11279;SDS011;5696;50.928;6.960;2022-09-21T17:00:21;2.95;;;1.63;;
11279;SDS011;5696;50.928;6.960;2022-09-21T17:02:47;3.70;;;1.50;;
11279;SDS011;5696;50.928;6.960;2022-09-21T17:05:13;3.00;;;1.70;;
11279;SDS011;5696;50.928;6.960;2022-09-21T17:07:52;3.40;;;1.50;;
11279;SDS011;5696;50.928;6.960;2022-09-21T17:10:26;2.47;;;1.95;;
11279;SDS011;5696;50.928;6.960;2022-09-21T17:12:55;3.63;;;2.45;;
11279;SDS011;5696;50.928;6.960;2022-09-21T17:15:21;2.35;;;1.63;;
11279;SDS011;5696;50.928;6.960;2022-09-21T17:17:48;7.32;;;4.40;;
11279;SDS011;5696;50.928;6.960;2022-09-21T17:20:27;4.07;;;2.05;;
11279;SDS011;5696;50.928;6.960;2022-09-21T17:22:57;3.70;;;1.63;;
11279;SDS011;5696;50.928;6.960;2022-09-21T17:25:26;1.45;;;1.35;;
11279;SDS011;5696;50.928;6.960;2022-09-21T17:27:53;1.85;;;1.48;;
11279;SDS011;5696;50.928;6.960;2022-09-21T17:30:21;1.52;;;1.42;;
11279;SDS011;5696;50.928;6.960;2022-09-21T17:32:48;3.60;;;2.30;;
11279;SDS011;5696;50.928;6.960;2022-09-21T17:35:35;3.03;;;2.22;;
11279;SDS011;5696;50.928;6.960;2022-09-21T17:38:03;4.40;;;2.22;;
11279;SDS011;5696;50.928;6.960;2022-09-21T17:40:29;2.80;;;2.60;;
11279;SDS011;5696;50.928;6.960;2022-09-21T17:45:48;3.28;;;2.47;;
11279;SDS011;5696;50.928;6.960;2022-09-21T17:48:21;2.88;;;1.90;;
11279;SDS011;5696;50.928;6.960;2022-09-21T17:50:48;4.88;;;2.80;;
11279;SDS011;5696;50.928;6.960;2022-09-21T17:53:14;2.58;;;1.95;;
11279;SDS011;5696;50.928;6.960;2022-09-21T17:56:26;4.63;;;2.20;;
11279;SDS011;5696;50.928;6.960;2022-09-21T18:01:55;4.93;;;2.47;;
11279;SDS011;5696;50.928;6.960;2022-09-21T18:04:23;3.65;;;2.63;;
11279;SDS011;5696;50.928;6.960;2022-09-21T18:06:54;3.25;;;2.40;;
11279;SDS011;5696;50.928;6.960;2022-09-21T18:09:20;2.75;;;2.20;;
11279;SDS011;5696;50.928;6.960;2022-09-21T18:14:59;5.35;;;3.42;;
11279;SDS011;5696;50.928;6.960;2022-09-21T18:20:35;8.63;;;3.80;;
11279;SDS011;5696;50.928;6.960;2022-09-21T18:26:00;4.63;;;3.83;;
11279;SDS011;5696;50.928;6.960;2022-09-21T18:28:37;5.40;;;3.85;;
11279;SDS011;5696;50.928;6.960;2022-09-21T18:33:37;5.70;;;3.20;;
11279;SDS011;5696;50.928;6.960;2022-09-21T18:36:24;4.90;;;2.88;;
11279;SDS011;5696;50.928;6.960;2022-09-21T18:39:17;3.75;;;2.90;;
11279;SDS011;5696;50.928;6.960;2022-09-21T18:50:18;4.00;;;2.22;;
11279;SDS011;5696;50.928;6.960;2022-09-21T18:53:04;4.30;;;2.85;;
11279;SDS011;5696;50.928;6.960;2022-09-21T18:55:39;3.00;;;2.45;;
11279;SDS011;5696;50.928;6.960;2022-09-21T18:58:06;4.28;;;2.30;;
11279;SDS011;5696;50.928;6.960;2022-09-21T19:00:34;2.80;;;2.00;;
11279;SDS011;5696;50.928;6.960;2022-09-21T19:03:01;3.38;;;2.30;;
11279;SDS011;5696;50.928;6.960;2022-09-21T19:05:36;4.43;;;2.40;;
11279;SDS011;5696;50.928;6.960;2022-09-21T19:10:54;3.58;;;2.38;;
11279;SDS011;5696;50.928;6.960;2022-09-21T19:32:17;8.23;;;5.13;;
11279;SDS011;5696;50.928;6.960;2022-09-21T19:34:49;6.18;;;2.80;;
11279;SDS011;5696;50.928;6.960;2022-09-21T19:37:16;4.97;;;2.95;;
11279;SDS011;5696;50.928;6.960;2022-09-21T19:39:42;4.03;;;3.10;;
11279;SDS011;5696;50.928;6.960;2022-09-21T19:42:12;6.53;;;3.85;;
11279;SDS011;5696;50.928;6.960;2022-09-21T19:47:51;5.07;;;3.38;;
11279;SDS011;5696;50.928;6.960;2022-09-21T19:50:20;4.05;;;3.25;;
11279;SDS011;5696;50.928;6.960;2022-09-21T19:52:48;5.38;;;3.70;;
11279;SDS011;5696;50.928;6.960;2022-09-21T19:55:15;5.35;;;3.40;;
11279;SDS011;5696;50.928;6.960;2022-09-21T19:58:02;4.15;;;3.75;;
11279;SDS011;5696;50.928;6.960;2022-09-21T20:00:48;5.63;;;3.60;;
11279;SDS011;5696;50.928;6.960;2022-09-21T20:05:57;5.00;;;3.60;;
11279;SDS011;5696;50.928;6.960;2022-09-21T20:11:05;6.05;;;3.92;;
11279;SDS011;5696;50.928;6.960;2022-09-21T20:13:49;4.68;;;3.25;;
11279;SDS011;5696;50.928;6.960;2022-09-21T20:16:48;4.55;;;3.35;;
11279;SDS011;5696;50.928;6.960;2022-09-21T20:22:37;3.33;;;3.00;;
11279;SDS011;5696;50.928;6.960;2022-09-21T20:28:01;3.95;;;2.70;;
11279;SDS011;5696;50.928;6.960;2022-09-21T20:30:29;4.03;;;3.60;;
11279;SDS011;5696;50.928;6.960;2022-09-21T20:32:59;5.20;;;3.40;;
11279;SDS011;5696;50.928;6.960;2022-09-21T20:35:29;4.25;;;3.30;;
11279;SDS011;5696;50.928;6.960;2022-09-21T20:37:55;5.75;;;3.05;;
11279;SDS011;5696;50.928;6.960;2022-09-21T20:40:21;3.95;;;3.20;;
11279;SDS011;5696;50.928;6.960;2022-09-21T20:42:50;7.72;;;3.95;;
11279;SDS011;5696;50.928;6.960;2022-09-21T20:45:17;3.97;;;3.58;;
11279;SDS011;5696;50.928;6.960;2022-09-21T20:47:43;4.30;;;3.90;;
11279;SDS011;5696;50.928;6.960;2022-09-21T20:50:09;4.63;;;3.63;;
11279;SDS011;5696;50.928;6.960;2022-09-21T20:52:36;6.00;;;4.05;;
11279;SDS011;5696;50.928;6.960;2022-09-21T20:55:03;5.82;;;4.63;;
11279;SDS011;5696;50.928;6.960;2022-09-21T20:57:32;5.40;;;4.60;;
11279;SDS011;5696;50.928;6.960;2022-09-21T20:59:58;6.97;;;4.68;;
11279;SDS011;5696;50.928;6.960;2022-09-21T21:02:24;10.82;;;4.95;;
11279;SDS011;5696;50.928;6.960;2022-09-21T21:04:53;6.75;;;4.68;;
11279;SDS011;5696;50.928;6.960;2022-09-21T21:07:21;8.25;;;5.95;;
11279;SDS011;5696;50.928;6.960;2022-09-21T21:09:46;8.85;;;6.32;;
11279;SDS011;5696;50.928;6.960;2022-09-21T21:12:12;11.10;;;7.50;;
11279;SDS011;5696;50.928;6.960;2022-09-21T21:14:40;13.13;;;8.68;;
11279;SDS011;5696;50.928;6.960;2022-09-21T21:17:14;10.88;;;7.68;;
11279;SDS011;5696;50.928;6.960;2022-09-21T21:19:40;11.60;;;7.40;;
11279;SDS011;5696;50.928;6.960;2022-09-21T21:22:08;10.05;;;7.60;;
11279;SDS011;5696;50.928;6.960;2022-09-21T21:24:35;9.60;;;6.97;;
11279;SDS011;5696;50.928;6.960;2022-09-21T21:27:04;8.73;;;6.20;;
11279;SDS011;5696;50.928;6.960;2022-09-21T21:29:31;8.75;;;5.82;;
11279;SDS011;5696;50.928;6.960;2022-09-21T21:31:57;8.38;;;6.15;;
11279;SDS011;5696;50.928;6.960;2022-09-21T21:34:23;8.80;;;6.45;;
11279;SDS011;5696;50.928;6.960;2022-09-21T21:36:49;8.80;;;5.93;;
11279;SDS011;5696;50.928;6.960;2022-09-21T21:39:15;9.45;;;5.95;;
11279;SDS011;5696;50.928;6.960;2022-09-21T21:41:41;8.52;;;6.05;;
11279;SDS011;5696;50.928;6.960;2022-09-21T21:44:07;7.43;;;6.05;;
11279;SDS011;5696;50.928;6.960;2022-09-21T21:46:32;7.63;;;5.47;;
11279;SDS011;5696;50.928;6.960;2022-09-21T21:48:58;8.38;;;5.32;;
11279;SDS011;5696;50.928;6.960;2022-09-21T21:51:24;7.93;;;5.53;;
11279;SDS011;5696;50.928;6.960;2022-09-21T21:53:50;9.90;;;5.40;;
11279;SDS011;5696;50.928;6.960;2022-09-21T21:56:16;8.20;;;5.95;;
11279;SDS011;5696;50.928;6.960;2022-09-21T21:58:44;7.75;;;5.88;;
11279;SDS011;5696;50.928;6.960;2022-09-21T22:01:10;8.18;;;5.38;;
11279;SDS011;5696;50.928;6.960;2022-09-21T22:03:45;8.70;;;5.63;;
11279;SDS011;5696;50.928;6.960;2022-09-21T22:06:11;7.20;;;5.50;;
11279;SDS011;5696;50.928;6.960;2022-09-21T22:08:56;9.25;;;6.90;;
